Time;durP1;ratioP1;P1;durP2;ratioP2;P2;SDS_P1;SDS_P2;PMS_P1;PMS_P2;Temp;Humidity;BMP_temperature;BMP_pressure;BME280_temperature;BME280_humidity;BME280_pressure;Samples;Min_cycle;Max_cycle;Signal;HPM_P1;HPM_P2
2021/01/28 00:00:36;;;;;;;1.60;0.80;;;21.20;48.40;;;;;;5025416;28;20087;-65
2021/01/28 00:03:04;;;;;;;1.38;0.70;;;21.10;48.10;;;;;;5027714;28;20029;-63
2021/01/28 00:05:33;;;;;;;2.13;0.80;;;21.10;48.20;;;;;;5029120;28;20670;-63
2021/01/28 00:07:59;;;;;;;;;;;21.10;48.20;;;;;;5028386;28;20032;-62
2021/01/28 00:10:25;;;;;;;1.40;0.70;;;21.10;48.70;;;;;;5014388;28;19913;-64
2021/01/28 00:12:51;;;;;;;1.63;0.80;;;21.10;48.20;;;;;;5023173;28;20053;-64
2021/01/28 00:15:19;;;;;;;1.13;0.70;;;21.10;48.30;;;;;;5026650;28;20060;-64
2021/01/28 00:17:45;;;;;;;1.05;0.70;;;21.00;48.20;;;;;;5028860;28;20048;-64
2021/01/28 00:20:29;;;;;;;1.83;0.60;;;21.10;48.30;;;;;;5061150;28;20089;-63
2021/01/28 00:22:56;;;;;;;1.10;0.65;;;21.00;48.20;;;;;;5026879;28;20609;-63
2021/01/28 00:25:23;;;;;;;1.55;0.70;;;21.00;48.20;;;;;;5023988;28;20035;-63
2021/01/28 00:27:50;;;;;;;1.45;0.70;;;21.00;48.20;;;;;;5027587;28;20025;-64
2021/01/28 00:30:22;;;;;;;1.05;0.70;;;21.00;48.20;;;;;;5026729;28;20033;-63
2021/01/28 00:32:48;;;;;;;2.13;0.80;;;21.00;48.20;;;;;;5024211;28;20026;-65
2021/01/28 00:35:24;;;;;;;1.10;0.73;;;21.00;48.20;;;;;;5037442;28;20113;-63
2021/01/28 00:37:50;;;;;;;0.95;0.60;;;20.90;48.20;;;;;;5027725;28;20048;-62
2021/01/28 00:40:16;;;;;;;1.63;0.80;;;20.90;48.20;;;;;;5029863;28;20037;-62
2021/01/28 00:42:41;;;;;;;1.48;0.70;;;21.00;48.20;;;;;;5027045;28;20035;-63
2021/01/28 00:45:08;;;;;;;0.68;0.60;;;20.90;48.20;;;;;;5025365;28;20104;-63
2021/01/28 00:47:34;;;;;;;1.33;0.70;;;20.90;48.20;;;;;;5027541;28;20044;-65
2021/01/28 00:50:00;;;;;;;1.35;0.60;;;20.90;48.20;;;;;;5027699;28;20029;-63
2021/01/28 00:52:25;;;;;;;1.30;0.75;;;20.90;48.20;;;;;;5027454;28;20080;-63
2021/01/28 00:54:51;;;;;;;2.45;0.77;;;20.90;48.20;;;;;;5026430;28;20392;-64
2021/01/28 00:57:16;;;;;;;1.52;0.70;;;20.90;48.20;;;;;;5027120;28;20044;-63
2021/01/28 00:59:42;;;;;;;1.30;0.60;;;20.90;48.30;;;;;;5024483;28;20017;-65
2021/01/28 01:02:07;;;;;;;1.35;0.82;;;20.90;48.30;;;;;;5028364;28;20391;-64
2021/01/28 01:04:33;;;;;;;1.20;0.80;;;20.80;48.20;;;;;;5026486;28;20079;-66
2021/01/28 01:06:59;;;;;;;1.33;0.70;;;20.80;48.20;;;;;;5057315;28;20048;-62
2021/01/28 01:09:26;;;;;;;0.93;0.70;;;20.80;48.20;;;;;;5028111;28;20037;-64
2021/01/28 01:11:52;;;;;;;1.13;0.63;;;20.80;48.20;;;;;;5025165;28;20033;-64
2021/01/28 01:14:18;;;;;;;1.10;0.60;;;20.80;48.20;;;;;;5027786;28;20075;-64
2021/01/28 01:16:44;;;;;;;1.10;0.65;;;20.80;48.20;;;;;;5024299;28;20017;-64
2021/01/28 01:19:11;;;;;;;1.67;0.70;;;20.80;48.30;;;;;;5025678;28;20460;-63
2021/01/28 01:21:36;;;;;;;1.70;0.80;;;20.80;48.20;;;;;;5056592;28;20428;-62
2021/01/28 01:24:02;;;;;;;1.10;0.70;;;20.80;48.20;;;;;;5026481;28;20075;-65
2021/01/28 01:26:28;;;;;;;1.15;0.75;;;20.80;48.30;;;;;;5022613;28;20030;-62
2021/01/28 01:28:53;;;;;;;1.48;0.70;;;20.80;48.30;;;;;;5025812;28;20033;-63
2021/01/28 01:31:19;;;;;;;1.45;0.80;;;20.80;48.30;;;;;;5022422;28;20071;-63
2021/01/28 01:33:45;;;;;;;0.73;0.60;;;20.70;48.20;;;;;;5016168;28;20048;-63
2021/01/28 01:36:10;;;;;;;0.85;0.60;;;20.70;48.20;;;;;;5056726;28;20033;-63
2021/01/28 01:38:36;;;;;;;1.08;0.70;;;20.70;48.30;;;;;;5023943;28;20038;-62
2021/01/28 01:41:02;;;;;;;1.05;0.60;;;20.70;48.30;;;;;;5048669;28;20036;-63
2021/01/28 01:43:28;;;;;;;1.38;0.85;;;20.70;48.30;;;;;;5023948;28;20114;-64
2021/01/28 01:46:03;;;;;;;1.13;0.60;;;20.70;48.30;;;;;;5041284;28;20022;-63
2021/01/28 01:48:32;;;;;;;1.17;0.70;;;20.70;48.30;;;;;;5022516;28;20076;-64
2021/01/28 01:51:16;;;;;;;1.02;0.70;;;20.70;48.30;;;;;;5026747;28;20419;-64
2021/01/28 01:53:53;;;;;;;1.17;0.80;;;20.70;48.30;;;;;;5022900;28;20106;-62
2021/01/28 01:56:28;;;;;;;1.35;0.70;;;20.70;48.30;;;;;;5024383;28;20025;-63
2021/01/28 01:58:53;;;;;;;1.13;0.70;;;20.70;48.30;;;;;;5024513;28;20108;-64
2021/01/28 02:01:25;;;;;;;1.80;0.80;;;20.60;48.20;;;;;;5025009;28;20029;-63
2021/01/28 02:03:53;;;;;;;1.42;0.70;;;20.60;48.20;;;;;;5026455;28;20053;-62
2021/01/28 02:06:18;;;;;;;1.90;0.60;;;20.70;48.30;;;;;;5056977;28;20021;-63
2021/01/28 02:08:46;;;;;;;1.20;0.70;;;20.60;48.30;;;;;;5017736;28;20037;-64
2021/01/28 02:11:12;;;;;;;1.10;0.70;;;20.60;48.30;;;;;;5027353;28;20186;-64
2021/01/28 02:13:39;;;;;;;1.45;0.70;;;20.60;48.20;;;;;;5058664;28;20136;-64
2021/01/28 02:16:05;;;;;;;1.13;0.77;;;20.60;48.30;;;;;;5024536;28;20534;-62
2021/01/28 02:18:31;;;;;;;2.10;0.65;;;20.60;48.30;;;;;;5052467;28;20026;-64
2021/01/28 02:21:10;;;;;;;1.83;0.60;;;20.60;48.30;;;;;;5023857;28;20084;-62
2021/01/28 02:23:51;;;;;;;1.98;0.80;;;20.60;48.30;;;;;;5013367;28;20045;-65
2021/01/28 02:26:17;;;;;;;1.00;0.70;;;20.60;48.30;;;;;;5021702;28;20550;-63
2021/01/28 02:28:43;;;;;;;0.95;0.60;;;20.60;48.30;;;;;;5025158;28;20029;-65
2021/01/28 02:31:09;;;;;;;1.10;0.60;;;20.60;48.30;;;;;;5021985;28;20044;-62
2021/01/28 02:33:38;;;;;;;1.23;0.60;;;20.60;48.40;;;;;;5028071;28;20417;-63
2021/01/28 02:36:04;;;;;;;0.90;0.60;;;20.50;48.30;;;;;;5028976;28;20072;-63
2021/01/28 02:38:29;;;;;;;1.00;0.70;;;20.50;48.30;;;;;;5029508;28;20490;-63
2021/01/28 02:40:56;;;;;;;0.75;0.60;;;20.50;48.30;;;;;;5030591;28;20022;-63
2021/01/28 02:43:21;;;;;;;1.02;0.70;;;20.50;48.30;;;;;;5022410;28;20121;-66
2021/01/28 02:45:47;;;;;;;0.70;0.60;;;20.50;48.30;;;;;;5024363;28;20117;-64
2021/01/28 02:48:12;;;;;;;0.98;0.60;;;20.50;48.30;;;;;;5028763;28;20032;-63
2021/01/28 02:50:38;;;;;;;0.70;0.60;;;20.50;48.30;;;;;;5029959;28;20483;-63
2021/01/28 02:53:06;;;;;;;1.13;0.70;;;20.50;48.30;;;;;;5029369;28;20035;-62
2021/01/28 02:55:34;;;;;;;1.48;0.80;;;20.50;48.30;;;;;;5059620;28;20040;-63
2021/01/28 02:57:59;;;;;;;0.80;0.60;;;20.50;48.30;;;;;;5030395;28;20034;-63
2021/01/28 03:00:34;;;;;;;1.05;0.65;;;20.50;48.30;;;;;;5021245;28;20034;-64
2021/01/28 03:03:08;;;;;;;0.95;0.70;;;20.50;48.30;;;;;;5028867;28;20022;-63
2021/01/28 03:05:34;;;;;;;0.68;0.55;;;20.40;48.30;;;;;;5019830;28;20761;-63
2021/01/28 03:08:00;;;;;;;2.00;0.70;;;20.50;48.30;;;;;;5029706;28;20567;-63
2021/01/28 03:10:26;;;;;;;0.82;0.60;;;20.50;48.30;;;;;;5030416;28;20135;-64
2021/01/28 03:12:52;;;;;;;0.50;0.50;;;20.40;48.30;;;;;;5036316;28;20880;-63
2021/01/28 03:15:22;;;;;;;0.43;0.43;;;20.40;48.30;;;;;;5059724;28;20054;-63
2021/01/28 03:17:49;;;;;;;1.00;0.60;;;20.40;48.30;;;;;;5030579;28;20411;-62
2021/01/28 03:20:15;;;;;;;0.95;0.60;;;20.40;48.30;;;;;;5024382;28;20040;-63
2021/01/28 03:22:41;;;;;;;1.08;0.60;;;20.40;48.30;;;;;;5026066;28;20480;-62
2021/01/28 03:25:10;;;;;;;0.77;0.60;;;20.40;48.30;;;;;;5029836;28;20104;-63
2021/01/28 03:27:35;;;;;;;0.87;0.60;;;20.40;48.30;;;;;;5025833;28;20030;-63
2021/01/28 03:30:03;;;;;;;0.88;0.60;;;20.40;48.30;;;;;;5028894;28;20534;-63
2021/01/28 03:32:29;;;;;;;1.00;0.60;;;20.40;48.30;;;;;;5023315;28;20120;-62
2021/01/28 03:34:54;;;;;;;0.63;0.52;;;20.40;48.30;;;;;;5029468;28;20045;-63
2021/01/28 03:37:20;;;;;;;0.88;0.60;;;20.40;48.30;;;;;;5025638;28;20032;-63
2021/01/28 03:39:46;;;;;;;0.70;0.60;;;20.40;48.30;;;;;;5031697;28;20069;-63
2021/01/28 03:42:11;;;;;;;0.95;0.50;;;20.40;48.30;;;;;;5028520;28;20135;-64
2021/01/28 03:44:37;;;;;;;0.73;0.50;;;20.40;48.30;;;;;;5028622;28;20048;-62
2021/01/28 03:47:03;;;;;;;0.47;0.47;;;20.40;48.30;;;;;;5026912;28;20040;-63
2021/01/28 03:49:28;;;;;;;1.00;0.60;;;20.40;48.30;;;;;;5030490;28;20025;-63
2021/01/28 03:51:54;;;;;;;0.57;0.57;;;20.30;48.30;;;;;;5029300;28;20029;-64
2021/01/28 03:54:20;;;;;;;0.90;0.60;;;20.30;48.30;;;;;;5027922;28;20065;-63
2021/01/28 03:56:45;;;;;;;0.90;0.70;;;20.30;48.30;;;;;;5028586;28;20022;-63
2021/01/28 03:59:11;;;;;;;0.50;0.50;;;20.30;48.30;;;;;;5028964;28;20025;-62
2021/01/28 04:01:36;;;;;;;0.70;0.70;;;20.30;48.30;;;;;;5029371;28;20520;-64
2021/01/28 04:04:02;;;;;;;0.90;0.60;;;20.30;48.30;;;;;;5026783;28;20030;-66
2021/01/28 04:06:28;;;;;;;1.05;0.70;;;20.30;48.30;;;;;;5025998;28;20025;-63
2021/01/28 04:08:53;;;;;;;1.23;0.70;;;20.30;48.30;;;;;;5022868;28;20067;-63
2021/01/28 04:11:19;;;;;;;1.52;0.82;;;20.30;48.30;;;;;;5026438;28;20057;-63
2021/01/28 04:13:44;;;;;;;0.50;0.40;;;20.30;48.30;;;;;;5028855;28;20093;-62
2021/01/28 04:16:10;;;;;;;0.88;0.60;;;20.30;48.30;;;;;;5028212;28;20028;-64
2021/01/28 04:18:36;;;;;;;0.95;0.57;;;20.30;48.30;;;;;;5060927;28;20066;-63
2021/01/28 04:21:01;;;;;;;0.60;0.57;;;20.30;48.30;;;;;;5027702;28;20041;-65
2021/01/28 04:23:27;;;;;;;0.88;0.70;;;20.30;48.30;;;;;;5017893;28;20034;-65
2021/01/28 04:25:53;;;;;;;0.73;0.50;;;20.20;48.30;;;;;;5027912;28;20029;-63
2021/01/28 04:28:18;;;;;;;0.80;0.57;;;20.20;48.30;;;;;;5027415;28;20044;-62
2021/01/28 04:30:44;;;;;;;0.68;0.50;;;20.20;48.40;;;;;;5027941;28;20061;-63
2021/01/28 04:33:10;;;;;;;0.95;0.60;;;20.20;48.40;;;;;;5027499;28;20040;-62
2021/01/28 04:35:35;;;;;;;1.00;0.60;;;20.20;48.40;;;;;;5024839;28;20033;-65
2021/01/28 04:38:01;;;;;;;0.50;0.50;;;20.20;48.40;;;;;;5025476;28;20128;-64
2021/01/28 04:40:35;;;;;;;0.43;0.40;;;20.20;48.40;;;;;;5029047;28;20067;-63
2021/01/28 04:43:24;;;;;;;0.50;0.50;;;20.20;48.50;;;;;;5019685;28;20338;-63
2021/01/28 04:45:53;;;;;;;0.75;0.45;;;20.20;48.40;;;;;;5025943;28;20025;-63
2021/01/28 04:48:19;;;;;;;0.43;0.40;;;20.20;48.50;;;;;;5060317;28;20119;-63
2021/01/28 04:50:45;;;;;;;0.65;0.60;;;20.20;48.50;;;;;;5028062;28;20026;-64
2021/01/28 04:53:14;;;;;;;0.47;0.47;;;20.20;48.50;;;;;;5024353;28;20021;-63
2021/01/28 04:55:46;;;;;;;1.35;0.82;;;20.20;48.50;;;;;;5055514;28;20139;-64
2021/01/28 04:58:12;;;;;;;0.82;0.52;;;20.20;48.60;;;;;;5059263;28;20029;-64
2021/01/28 05:00:38;;;;;;;0.75;0.52;;;20.20;48.60;;;;;;5017582;28;20029;-64
2021/01/28 05:03:21;;;;;;;0.90;0.52;;;20.10;48.50;;;;;;5026459;28;20030;-63
2021/01/28 05:05:50;;;;;;;0.85;0.50;;;20.10;48.50;;;;;;5027063;28;20025;-66
2021/01/28 05:08:15;;;;;;;0.70;0.50;;;20.20;48.60;;;;;;5027741;28;20064;-64
2021/01/28 05:10:45;;;;;;;1.08;0.57;;;20.20;48.60;;;;;;5060042;28;20034;-63
2021/01/28 05:13:23;;;;;;;0.65;0.52;;;20.20;48.60;;;;;;5026455;28;20034;-63
2021/01/28 05:15:48;;;;;;;0.68;0.50;;;20.10;48.60;;;;;;5025938;28;20040;-63
2021/01/28 05:18:30;;;;;;;0.68;0.50;;;20.20;48.60;;;;;;5025779;28;20030;-63
2021/01/28 05:21:24;;;;;;;0.60;0.50;;;20.20;48.60;;;;;;5027727;28;20103;-64
2021/01/28 05:24:00;;;;;;;0.75;0.50;;;20.20;48.60;;;;;;5025502;28;20068;-63
2021/01/28 05:26:31;;;;;;;0.70;0.60;;;20.20;48.60;;;;;;5021429;28;20047;-65
2021/01/28 05:29:27;;;;;;;0.70;0.50;;;20.10;48.60;;;;;;5019377;28;20144;-66
2021/01/28 05:31:56;;;;;;;0.57;0.50;;;20.20;48.70;;;;;;5020813;28;20041;-66
2021/01/28 05:34:26;;;;;;;0.50;0.50;;;20.20;48.70;;;;;;5055681;28;20053;-64
2021/01/28 05:37:02;;;;;;;0.93;0.50;;;20.20;48.70;;;;;;5022108;28;20037;-62
2021/01/28 05:39:30;;;;;;;0.68;0.50;;;20.20;48.70;;;;;;5022491;28;20052;-63
2021/01/28 05:42:29;;;;;;;0.50;0.50;;;20.20;48.70;;;;;;5057506;28;20029;-64
2021/01/28 05:44:56;;;;;;;1.00;0.50;;;20.10;48.70;;;;;;5022579;28;20059;-64
2021/01/28 05:47:26;;;;;;;0.50;0.50;;;20.20;48.70;;;;;;5025578;28;20032;-63
2021/01/28 05:49:52;;;;;;;0.60;0.50;;;20.10;48.70;;;;;;5058342;28;20037;-63
2021/01/28 05:52:26;;;;;;;0.45;0.40;;;20.20;48.80;;;;;;5022286;28;20026;-65
2021/01/28 05:55:09;;;;;;;0.95;0.50;;;20.20;48.70;;;;;;5024258;28;20025;-64
2021/01/28 05:57:43;;;;;;;0.52;0.47;;;20.10;48.70;;;;;;5020379;28;20179;-63
2021/01/28 06:00:15;;;;;;;1.15;0.60;;;20.10;48.70;;;;;;5022117;28;20128;-63
2021/01/28 06:03:02;;;;;;;0.57;0.57;;;20.10;48.70;;;;;;5026103;28;20037;-64
2021/01/28 06:05:46;;;;;;;0.98;0.50;;;20.10;48.70;;;;;;5024889;28;20029;-64
2021/01/28 06:08:40;;;;;;;0.57;0.55;;;20.10;48.70;;;;;;5026778;28;20061;-63
2021/01/28 06:11:43;;;;;;;0.85;0.45;;;20.10;48.70;;;;;;5021658;28;20045;-63
2021/01/28 06:14:46;;;;;;;0.98;0.60;;;20.10;48.70;;;;;;5027369;28;20047;-63
2021/01/28 06:17:21;;;;;;;0.70;0.40;;;20.10;48.70;;;;;;5017440;28;20033;-65
2021/01/28 06:19:52;;;;;;;0.93;0.70;;;20.10;48.80;;;;;;5026692;28;20029;-71
2021/01/28 06:22:32;;;;;;;1.23;0.70;;;20.10;49.50;;;;;;5026225;28;20137;-68
2021/01/28 06:25:41;;;;;;;1.38;0.70;;;20.20;50.30;;;;;;5026876;28;20104;-68
2021/01/28 06:28:18;;;;;;;0.88;0.60;;;20.50;50.40;;;;;;5025722;28;20037;-68
2021/01/28 06:31:05;;;;;;;1.35;0.70;;;20.80;50.20;;;;;;5024524;28;20037;-68
2021/01/28 06:33:55;;;;;;;0.75;0.65;;;21.10;49.90;;;;;;5027343;28;20032;-68
2021/01/28 06:36:38;;;;;;;0.75;0.63;;;21.30;49.50;;;;;;5026555;28;20041;-67
2021/01/28 06:39:22;;;;;;;0.70;0.60;;;21.50;49.30;;;;;;5028227;28;20067;-67
2021/01/28 06:42:20;;;;;;;0.80;0.60;;;21.70;49.10;;;;;;5028643;28;20076;-68
2021/01/28 06:44:57;;;;;;;0.90;0.68;;;21.90;48.90;;;;;;5053911;28;20041;-68
2021/01/28 06:48:03;;;;;;;0.60;0.60;;;22.10;48.90;;;;;;5026377;28;20029;-67
2021/01/28 06:50:55;;;;;;;0.70;0.50;;;22.20;48.80;;;;;;5028811;28;20037;-68
2021/01/28 06:53:46;;;;;;;0.40;0.40;;;22.40;48.70;;;;;;5026985;28;20025;-70
2021/01/28 06:56:38;;;;;;;0.60;0.40;;;22.50;48.50;;;;;;5035856;28;20052;-70
2021/01/28 06:59:16;;;;;;;0.80;0.60;;;22.80;48.50;;;;;;5026771;28;20025;-69
2021/01/28 07:01:54;;;;;;;2.40;0.50;;;22.90;48.20;;;;;;5025847;28;22540;-69
2021/01/28 07:05:13;;;;;;;0.57;0.50;;;23.10;48.20;;;;;;5027773;28;20053;-71
2021/01/28 07:07:55;;;;;;;;;;;23.30;47.90;;;;;;5004905;28;20362;-67
2021/01/28 07:10:28;;;;;;;0.60;0.40;;;23.40;47.70;;;;;;5004134;28;19952;-66
2021/01/28 07:12:55;;;;;;;1.05;0.50;;;23.60;47.70;;;;;;5009747;28;20084;-70
2021/01/28 07:15:24;;;;;;;1.00;0.50;;;23.70;47.60;;;;;;5026837;28;20029;-67
2021/01/28 07:18:04;;;;;;;0.80;0.45;;;23.90;47.40;;;;;;5026900;28;20057;-70
2021/01/28 07:20:34;;;;;;;1.40;0.68;;;24.10;47.30;;;;;;5028152;28;20742;-68
2021/01/28 07:23:23;;;;;;;0.70;0.38;;;24.20;47.10;;;;;;5029510;28;20033;-69
2021/01/28 07:25:51;;;;;;;1.63;0.40;;;24.10;47.00;;;;;;5031359;28;20034;-68
2021/01/28 07:28:17;;;;;;;0.63;0.40;;;24.00;47.20;;;;;;5028129;28;20075;-69
2021/01/28 07:30:47;;;;;;;0.40;0.40;;;23.90;47.50;;;;;;5027957;28;20065;-68
2021/01/28 07:33:24;;;;;;;0.40;0.40;;;23.80;47.70;;;;;;5032083;28;20036;-67
2021/01/28 07:35:55;;;;;;;0.63;0.40;;;23.70;47.80;;;;;;5029721;28;20037;-68
2021/01/28 07:38:30;;;;;;;0.40;0.40;;;23.70;47.90;;;;;;5032579;28;20076;-69
2021/01/28 07:41:07;;;;;;;0.55;0.50;;;23.60;48.00;;;;;;5062779;28;20026;-68
2021/01/28 07:43:36;;;;;;;1.00;0.50;;;23.70;48.30;;;;;;5031522;28;20021;-69
2021/01/28 07:46:26;;;;;;;0.40;0.40;;;23.90;48.20;;;;;;5029008;28;20044;-70
2021/01/28 07:49:21;;;;;;;0.57;0.43;;;23.90;47.80;;;;;;5030183;28;20033;-66
2021/01/28 07:51:48;;;;;;;0.40;0.32;;;23.90;47.90;;;;;;5029187;28;20041;-66
2021/01/28 07:54:36;;;;;;;0.40;0.40;;;23.90;48.20;;;;;;5030376;28;20056;-67
2021/01/28 07:57:10;;;;;;;0.47;0.30;;;23.90;48.20;;;;;;5029542;28;20025;-68
2021/01/28 07:59:55;;;;;;;0.65;0.40;;;23.90;48.30;;;;;;5025527;28;20030;-69
2021/01/28 08:02:34;;;;;;;0.40;0.40;;;23.90;48.70;;;;;;5029036;28;20029;-69
2021/01/28 08:05:03;;;;;;;0.73;0.40;;;24.00;48.50;;;;;;5030063;28;20156;-67
2021/01/28 08:07:38;;;;;;;1.85;0.50;;;24.00;48.40;;;;;;5029341;28;20034;-68
2021/01/28 08:10:23;;;;;;;1.50;0.30;;;24.00;48.30;;;;;;5028878;28;20030;-69
2021/01/28 08:13:21;;;;;;;0.60;0.40;;;24.00;48.30;;;;;;5030296;28;20029;-68
2021/01/28 08:16:00;;;;;;;0.65;0.40;;;24.00;48.40;;;;;;5024397;28;20072;-68
2021/01/28 08:18:31;;;;;;;0.25;0.25;;;24.00;48.70;;;;;;5029956;28;20330;-68
2021/01/28 08:21:11;;;;;;;0.32;0.30;;;24.10;48.30;;;;;;5029282;28;20048;-67
2021/01/28 08:23:41;;;;;;;0.28;0.28;;;24.20;48.30;;;;;;5028171;28;20042;-68
2021/01/28 08:26:13;;;;;;;0.63;0.52;;;24.20;48.30;;;;;;5025230;28;20133;-72
2021/01/28 08:28:44;;;;;;;0.60;0.55;;;24.10;46.30;;;;;;5028014;28;20021;-72
2021/01/28 08:31:26;;;;;;;1.02;0.60;;;24.10;44.80;;;;;;5027017;28;20125;-71
2021/01/28 08:33:57;;;;;;;1.25;0.70;;;23.90;44.10;;;;;;5026852;28;20033;-68
2021/01/28 08:36:30;;;;;;;0.88;0.68;;;23.90;44.20;;;;;;5059828;28;20025;-66
2021/01/28 08:39:32;;;;;;;0.80;0.52;;;23.90;43.90;;;;;;5029171;28;20061;-67
2021/01/28 08:42:00;;;;;;;1.10;0.60;;;23.90;43.70;;;;;;5021721;28;20041;-64
2021/01/28 08:44:26;;;;;;;1.67;0.77;;;23.80;43.70;;;;;;5029840;28;20064;-66
2021/01/28 08:47:12;;;;;;;1.30;0.80;;;23.80;43.60;;;;;;5047126;28;20195;-68
2021/01/28 08:49:38;;;;;;;1.13;0.70;;;23.80;43.50;;;;;;5009189;28;20112;-65
2021/01/28 08:52:07;;;;;;;0.73;0.50;;;23.70;44.00;;;;;;5043943;28;20132;-65
2021/01/28 08:54:37;;;;;;;1.17;0.77;;;23.70;43.70;;;;;;5028823;28;20026;-66
2021/01/28 08:57:04;;;;;;;0.50;0.50;;;23.80;43.70;;;;;;5028283;28;20521;-64
2021/01/28 08:59:42;;;;;;;0.80;0.65;;;23.70;43.60;;;;;;5028884;28;20033;-65
2021/01/28 09:02:13;;;;;;;1.70;0.88;;;23.70;43.60;;;;;;5027599;28;20129;-68
2021/01/28 09:04:42;;;;;;;0.98;0.60;;;23.70;43.70;;;;;;5029183;28;20013;-67
2021/01/28 09:07:09;;;;;;;0.63;0.50;;;23.70;44.10;;;;;;5029359;28;20067;-69
2021/01/28 09:09:35;;;;;;;0.50;0.50;;;23.70;44.50;;;;;;5029168;28;20033;-67
2021/01/28 09:12:23;;;;;;;0.60;0.50;;;23.70;44.80;;;;;;5027456;28;20139;-68
2021/01/28 09:14:49;;;;;;;0.75;0.60;;;23.80;45.50;;;;;;5027274;28;21356;-68
2021/01/28 09:17:31;;;;;;;0.50;0.50;;;23.90;45.40;;;;;;5027551;28;20026;-67
2021/01/28 09:19:59;;;;;;;1.95;0.60;;;23.90;46.10;;;;;;5059155;28;20024;-69
2021/01/28 09:22:36;;;;;;;0.80;0.57;;;23.90;46.10;;;;;;5025267;28;20511;-69
2021/01/28 09:25:17;;;;;;;0.50;0.40;;;23.90;46.10;;;;;;5027769;28;20120;-70
2021/01/28 09:27:43;;;;;;;0.63;0.50;;;23.90;46.10;;;;;;5028657;28;20101;-69
2021/01/28 09:30:24;;;;;;;0.70;0.55;;;23.90;46.30;;;;;;5026254;28;20028;-68
2021/01/28 09:32:51;;;;;;;1.02;0.60;;;23.90;46.40;;;;;;5044768;28;20167;-69
2021/01/28 09:35:21;;;;;;;0.45;0.40;;;23.90;47.00;;;;;;5028605;28;20055;-70
2021/01/28 09:38:16;;;;;;;1.00;0.60;;;24.00;46.90;;;;;;5028298;28;20033;-68
2021/01/28 09:40:44;;;;;;;0.57;0.50;;;24.10;47.00;;;;;;5027858;28;20487;-68
2021/01/28 09:43:28;;;;;;;0.90;0.50;;;24.10;47.00;;;;;;5016489;28;20029;-66
2021/01/28 09:46:18;;;;;;;0.80;0.60;;;24.10;47.00;;;;;;5026772;28;20033;-70
2021/01/28 09:48:49;;;;;;;2.33;0.60;;;24.10;47.20;;;;;;5023100;28;20026;-66
2021/01/28 09:51:25;;;;;;;1.23;0.60;;;24.10;47.60;;;;;;5025538;28;20535;-68
2021/01/28 09:54:20;;;;;;;0.70;0.45;;;24.10;48.30;;;;;;5021250;28;20030;-70
2021/01/28 09:56:45;;;;;;;2.30;0.57;;;24.10;48.10;;;;;;5027178;28;20038;-68
2021/01/28 09:59:13;;;;;;;0.60;0.40;;;24.10;48.10;;;;;;5020605;28;20036;-67
2021/01/28 10:01:38;;;;;;;1.65;0.40;;;24.10;48.50;;;;;;5026373;28;20041;-68
2021/01/28 10:04:04;;;;;;;0.68;0.50;;;24.10;48.50;;;;;;5028703;28;20037;-68
2021/01/28 10:06:30;;;;;;;0.55;0.50;;;24.10;48.20;;;;;;5025423;28;20364;-69
2021/01/28 10:08:55;;;;;;;1.42;0.55;;;24.10;48.50;;;;;;5027116;28;20022;-66
2021/01/28 10:11:24;;;;;;;0.43;0.43;;;24.20;48.60;;;;;;5038827;28;20561;-68
2021/01/28 10:13:50;;;;;;;0.80;0.60;;;24.20;49.40;;;;;;5029516;28;20341;-67
2021/01/28 10:16:15;;;;;;;0.40;0.40;;;24.20;49.10;;;;;;5025974;28;20034;-68
2021/01/28 10:18:41;;;;;;;0.75;0.50;;;24.10;49.00;;;;;;5027803;28;20038;-66
2021/01/28 10:21:07;;;;;;;0.70;0.40;;;24.20;49.70;;;;;;5027319;28;20427;-66
2021/01/28 10:23:32;;;;;;;0.52;0.50;;;24.20;49.90;;;;;;5028386;28;20029;-70
2021/01/28 10:25:58;;;;;;;0.50;0.47;;;24.20;49.70;;;;;;5025858;28;20034;-70
2021/01/28 10:28:23;;;;;;;0.68;0.50;;;24.20;49.90;;;;;;5028160;28;20026;-66
2021/01/28 10:30:49;;;;;;;0.70;0.50;;;24.20;50.00;;;;;;5023826;28;20075;-68
2021/01/28 10:33:15;;;;;;;0.50;0.50;;;24.30;50.10;;;;;;5028103;28;20022;-69
2021/01/28 10:35:42;;;;;;;0.45;0.40;;;24.20;49.80;;;;;;5024739;28;20090;-68
2021/01/28 10:38:09;;;;;;;3.60;0.50;;;24.30;50.50;;;;;;5018952;28;20117;-69
2021/01/28 10:40:35;;;;;;;0.50;0.50;;;24.30;50.50;;;;;;5026928;28;20075;-67
2021/01/28 10:43:05;;;;;;;0.57;0.50;;;24.30;50.70;;;;;;5027031;28;20075;-67
2021/01/28 10:45:35;;;;;;;1.33;0.70;;;24.30;47.90;;;;;;5024763;28;20032;-66
2021/01/28 10:48:03;;;;;;;1.42;0.80;;;24.20;44.60;;;;;;5026751;28;20037;-67
2021/01/28 10:50:30;;;;;;;1.00;0.70;;;24.10;44.10;;;;;;5027267;28;20103;-68
2021/01/28 10:52:56;;;;;;;0.98;0.70;;;23.90;43.90;;;;;;5025502;28;20108;-67
2021/01/28 10:55:24;;;;;;;1.20;0.75;;;23.90;44.40;;;;;;5028384;28;20033;-66
2021/01/28 10:57:50;;;;;;;1.58;0.80;;;23.90;44.30;;;;;;5029661;28;20479;-67
2021/01/28 11:00:16;;;;;;;1.05;0.65;;;23.90;44.30;;;;;;5027440;28;20037;-68
2021/01/28 11:02:42;;;;;;;0.88;0.70;;;23.90;44.20;;;;;;5030646;28;20029;-67
2021/01/28 11:05:17;;;;;;;1.77;0.60;;;23.90;44.10;;;;;;5030608;28;20018;-71
2021/01/28 11:07:43;;;;;;;1.63;0.80;;;23.80;44.00;;;;;;5030474;28;20068;-65
2021/01/28 11:10:09;;;;;;;1.02;0.70;;;23.90;44.10;;;;;;5020497;28;20033;-67
2021/01/28 11:12:35;;;;;;;1.02;0.75;;;23.80;44.10;;;;;;5030302;28;20017;-64
2021/01/28 11:15:02;;;;;;;1.52;0.75;;;23.80;44.00;;;;;;5058622;28;20460;-65
2021/01/28 11:17:28;;;;;;;1.33;0.77;;;23.80;44.10;;;;;;5026369;28;20135;-63
2021/01/28 11:19:53;;;;;;;1.30;0.70;;;23.80;44.00;;;;;;5046699;28;20129;-65
2021/01/28 11:22:19;;;;;;;0.70;0.60;;;23.70;44.00;;;;;;5046086;28;20467;-69
2021/01/28 11:24:45;;;;;;;1.50;0.80;;;23.70;44.00;;;;;;5030524;28;20076;-65
2021/01/28 11:27:11;;;;;;;0.88;0.70;;;23.70;44.00;;;;;;5030087;28;20033;-67
2021/01/28 11:29:37;;;;;;;1.25;0.70;;;23.70;44.00;;;;;;5026018;28;20025;-68
2021/01/28 11:32:02;;;;;;;0.85;0.60;;;23.70;44.10;;;;;;5028175;28;20042;-65
2021/01/28 11:34:29;;;;;;;1.63;0.80;;;23.70;44.10;;;;;;5031068;28;20164;-65
2021/01/28 11:36:55;;;;;;;1.33;0.70;;;23.70;44.10;;;;;;5029312;28;20491;-66
2021/01/28 11:39:21;;;;;;;0.85;0.50;;;23.70;44.10;;;;;;5030311;28;20567;-66
2021/01/28 11:41:47;;;;;;;0.90;0.60;;;23.60;44.10;;;;;;5027451;28;20085;-66
2021/01/28 11:44:12;;;;;;;0.63;0.60;;;23.60;44.10;;;;;;5028725;28;20029;-68
2021/01/28 11:46:38;;;;;;;2.13;0.80;;;23.60;44.10;;;;;;5028879;28;20032;-67
2021/01/28 11:49:03;;;;;;;1.33;0.80;;;23.60;44.10;;;;;;5025889;28;20071;-65
2021/01/28 11:51:29;;;;;;;1.10;0.70;;;23.60;44.10;;;;;;5029954;28;20090;-67
2021/01/28 11:53:54;;;;;;;1.00;0.55;;;23.60;44.20;;;;;;5026372;28;20018;-64
2021/01/28 11:56:20;;;;;;;1.52;0.60;;;23.50;44.10;;;;;;5060728;28;20036;-66
2021/01/28 11:58:46;;;;;;;0.80;0.68;;;23.60;44.20;;;;;;5030572;28;20108;-68
2021/01/28 12:01:11;;;;;;;1.27;0.70;;;23.60;44.20;;;;;;5029303;28;20041;-68
2021/01/28 12:03:37;;;;;;;0.90;0.60;;;23.50;44.20;;;;;;5029624;28;20029;-66
2021/01/28 12:06:03;;;;;;;1.33;0.75;;;23.50;44.20;;;;;;5028670;28;20033;-65
2021/01/28 12:08:28;;;;;;;1.75;0.50;;;23.50;44.30;;;;;;5024363;28;20034;-65
2021/01/28 12:10:54;;;;;;;1.73;0.60;;;23.50;44.40;;;;;;5026949;28;20176;-71
2021/01/28 12:13:19;;;;;;;1.02;0.60;;;23.50;44.60;;;;;;5014987;28;20025;-70
2021/01/28 12:15:45;;;;;;;1.00;0.60;;;23.40;44.60;;;;;;5019448;28;20044;-70
2021/01/28 12:18:11;;;;;;;1.05;0.70;;;23.40;44.70;;;;;;5025369;28;20070;-65
2021/01/28 12:20:37;;;;;;;1.38;0.68;;;23.40;44.70;;;;;;5029227;28;20128;-67
2021/01/28 12:23:02;;;;;;;1.17;0.68;;;23.40;44.80;;;;;;5029510;28;20096;-65
2021/01/28 12:25:28;;;;;;;1.80;0.70;;;23.40;44.60;;;;;;5028833;28;20041;-67
2021/01/28 12:27:54;;;;;;;1.38;0.70;;;23.40;44.70;;;;;;5028874;28;20072;-66
2021/01/28 12:30:22;;;;;;;0.60;0.60;;;23.40;45.20;;;;;;5026401;28;20034;-67
2021/01/28 12:32:48;;;;;;;1.08;0.70;;;23.40;44.80;;;;;;5062500;28;20136;-66
2021/01/28 12:35:15;;;;;;;1.15;0.60;;;23.40;44.80;;;;;;5029737;28;20411;-64
2021/01/28 12:37:41;;;;;;;0.73;0.60;;;23.40;44.70;;;;;;5060769;28;20526;-66
2021/01/28 12:40:08;;;;;;;1.35;0.60;;;23.40;44.70;;;;;;5022927;28;20026;-64
2021/01/28 12:42:34;;;;;;;1.02;0.70;;;23.40;44.80;;;;;;5023447;28;20040;-65
2021/01/28 12:45:00;;;;;;;0.77;0.60;;;23.40;44.70;;;;;;5024645;28;20038;-66
2021/01/28 12:47:27;;;;;;;1.13;0.60;;;23.40;44.70;;;;;;5028674;28;20029;-65
2021/01/28 12:49:53;;;;;;;0.65;0.60;;;23.40;44.70;;;;;;5026138;28;20429;-64
2021/01/28 12:52:19;;;;;;;1.52;0.60;;;23.40;44.70;;;;;;5017929;28;20032;-64
2021/01/28 12:54:45;;;;;;;1.25;0.70;;;23.40;44.70;;;;;;5022137;28;20226;-64
2021/01/28 12:57:10;;;;;;;2.72;0.80;;;23.40;44.70;;;;;;5025170;28;20112;-64
2021/01/28 12:59:36;;;;;;;0.93;0.70;;;23.40;44.60;;;;;;5027282;28;20025;-69
2021/01/28 13:02:02;;;;;;;0.88;0.60;;;23.40;44.70;;;;;;5026671;28;20045;-65
2021/01/28 13:04:27;;;;;;;1.10;0.65;;;23.40;44.60;;;;;;5025469;28;20033;-66
2021/01/28 13:06:53;;;;;;;1.48;0.60;;;23.30;44.60;;;;;;5026156;28;20075;-65